CDT,Max TemperatureF,Mean TemperatureF,Min TemperatureF,Max Dew PointF,MeanDew PointF,Min DewpointF,Max Humidity, Mean Humidity, Min Humidity, Max Sea Level PressureIn, Mean Sea Level PressureIn, Min Sea Level PressureIn, Max VisibilityMiles, Mean VisibilityMiles, Min VisibilityMiles, Max Wind SpeedMPH, Mean Wind SpeedMPH, Max Gust SpeedMPH,PrecipitationIn, CloudCover, Events, WindDirDegrees
2012-10-1,82,71,60,60,57,51,90,64,37,29.81,29.75,29.71,10,10,6,21,9,28,0.01,3,Rain,302
2012-10-2,83,70,57,61,57,51,97,66,34,29.96,29.87,29.80,10,10,8,12,2,15,0.00,0,,307
2012-10-3,85,71,56,63,59,55,100,70,40,30.07,30.01,29.96,10,10,7,13,3,25,0.00,0,,132
2012-10-4,86,74,61,70,64,60,100,74,48,30.17,30.12,30.07,10,9,6,24,5,26,0.00,0,,154
2012-10-5,86,75,64,72,68,63,100,78,55,30.13,30.07,30.00,10,8,2,10,4,0,0.00,2,,140
2012-10-6,86,72,58,70,65,57,100,76,51,30.07,30.01,29.95,10,6,0,20,6,24,0.00,2,Fog,12
2012-10-7,71,62,52,54,51,46,86,72,57,30.19,30.11,30.06,10,10,4,21,13,26,0.00,5,,10
2012-10-8,72,64,55,54,50,47,80,65,49,30.22,30.15,30.09,10,10,10,14,8,18,0.00,4,,16
2012-10-9,81,68,54,66,60,51,93,76,58,30.12,30.06,29.99,10,10,10,14,8,17,0.00,2,,119
2012-10-10,87,76,65,72,70,66,100,78,55,30.14,30.09,30.02,10,9,5,15,6,20,0.00,4,Rain,119
2012-10-11,85,77,69,73,70,68,100,80,59,30.19,30.14,30.10,10,9,4,17,8,24,0.00,1,,116
2012-10-12,84,76,67,73,70,66,100,81,61,30.21,30.15,30.13,10,7,1,15,7,18,0.00,3,,106
2012-10-13,86,80,73,73,71,69,93,77,61,30.13,30.09,30.01,10,10,8,21,12,26,0.00,3,,156
2012-10-14,87,79,70,72,70,68,93,74,55,30.10,30.01,29.98,10,10,7,15,7,21,0.01,2,Rain,198
2012-10-15,84,73,62,72,59,49,93,62,31,30.06,30.01,29.95,10,10,8,16,7,20,0.00,1,,11
2012-10-16,80,69,57,66,61,55,100,79,58,29.98,29.90,29.83,10,9,4,15,5,20,0.25,3,Rain,158
2012-10-17,86,73,60,75,70,59,100,83,65,29.80,29.74,29.65,10,10,6,21,8,30,0.00,4,,181
2012-10-18,81,72,62,74,61,47,100,65,30,29.95,29.82,29.71,10,8,0,26,9,32,1.05,5,Fog-Rain-Thunderstorm,17
2012-10-19,82,66,49,55,46,33,96,57,18,30.01,29.95,29.91,10,10,9,12,4,16,0.00,0,,327
2012-10-20,83,67,50,66,54,44,90,58,26,29.99,29.94,29.90,10,10,10,16,7,22,0.00,0,,144
2012-10-21,86,77,68,70,68,66,90,74,58,30.02,29.97,29.92,10,10,10,18,9,23,0.00,2,,151
2012-10-22,84,76,68,70,69,67,97,80,63,30.06,30.02,29.99,10,10,10,18,9,29,0.00,3,,127
2012-10-23,84,75,65,72,68,65,100,79,58,30.03,29.99,29.96,10,10,5,12,7,,0.00,2,,119
2012-10-24,85,76,66,73,70,66,100,80,59,30.03,29.98,29.93,10,8,1,18,8,23,0.00,4,,110
2012-10-25,85,77,68,73,71,68,100,85,69,29.94,29.91,29.88,10,10,9,18,8,22,0.00,3,,134
2012-10-26,70,66,62,70,62,46,100,89,78,30.15,30.00,29.92,10,5,0,20,9,25,0.00,6,Fog,349
2012-10-27,65,57,49,47,41,38,83,62,40,30.18,30.13,30.04,10,10,10,24,15,31,0.00,3,,357
2012-10-28,67,54,40,42,36,32,92,60,28,30.23,30.18,30.12,10,10,10,18,9,23,0.00,0,,358
2012-10-29,70,55,40,42,36,32,86,56,25,30.28,30.21,30.14,10,10,10,14,6,20,0.00,0,,10
2012-10-30,73,57,40,54,46,39,100,68,35,30.15,30.09,30.02,10,10,9,13,3,20,0.00,0,,177
2012-10-31,83,67,51,64,58,51,100,73,46,30.07,30.01,29.95,10,8,2,13,4,17,0.00,1,,235